sensor_id;sensor_type;location;lat;lon;timestamp;temperature;humidity
23120;DHT22;11729;50.836;4.330;2023-11-22T00:00:03;8.30;99.90
23120;DHT22;11729;50.836;4.330;2023-11-22T00:02:29;8.10;99.90
23120;DHT22;11729;50.836;4.330;2023-11-22T00:04:55;8.00;99.90
23120;DHT22;11729;50.836;4.330;2023-11-22T00:07:22;8.20;99.90
23120;DHT22;11729;50.836;4.330;2023-11-22T00:09:47;7.90;99.90
23120;DHT22;11729;50.836;4.330;2023-11-22T00:12:13;7.80;99.90
23120;DHT22;11729;50.836;4.330;2023-11-22T00:14:39;7.90;99.90
23120;DHT22;11729;50.836;4.330;2023-11-22T00:17:05;7.90;99.90
23120;DHT22;11729;50.836;4.330;2023-11-22T00:19:30;7.80;99.90
23120;DHT22;11729;50.836;4.330;2023-11-22T00:21:56;7.80;99.90
23120;DHT22;11729;50.836;4.330;2023-11-22T00:24:22;7.70;99.90
23120;DHT22;11729;50.836;4.330;2023-11-22T00:26:48;7.80;99.90
23120;DHT22;11729;50.836;4.330;2023-11-22T00:29:14;7.80;99.90
23120;DHT22;11729;50.836;4.330;2023-11-22T00:31:41;7.80;99.90
23120;DHT22;11729;50.836;4.330;2023-11-22T00:34:06;7.90;99.90
23120;DHT22;11729;50.836;4.330;2023-11-22T00:36:32;7.90;99.90
23120;DHT22;11729;50.836;4.330;2023-11-22T00:38:58;8.00;99.90
23120;DHT22;11729;50.836;4.330;2023-11-22T00:41:23;8.10;99.90
23120;DHT22;11729;50.836;4.330;2023-11-22T00:43:49;8.10;99.90
23120;DHT22;11729;50.836;4.330;2023-11-22T00:46:14;7.90;99.90
23120;DHT22;11729;50.836;4.330;2023-11-22T00:48:40;7.70;99.90
23120;DHT22;11729;50.836;4.330;2023-11-22T00:51:06;7.70;99.90
23120;DHT22;11729;50.836;4.330;2023-11-22T00:53:37;7.80;99.90
23120;DHT22;11729;50.836;4.330;2023-11-22T00:56:03;7.80;99.90
23120;DHT22;11729;50.836;4.330;2023-11-22T00:58:29;7.80;99.90
23120;DHT22;11729;50.836;4.330;2023-11-22T01:00:54;7.90;99.90
23120;DHT22;11729;50.836;4.330;2023-11-22T01:03:20;7.80;99.90
23120;DHT22;11729;50.836;4.330;2023-11-22T01:05:45;7.70;99.90
23120;DHT22;11729;50.836;4.330;2023-11-22T01:08:13;7.60;99.90
23120;DHT22;11729;50.836;4.330;2023-11-22T01:10:39;7.50;99.90
23120;DHT22;11729;50.836;4.330;2023-11-22T01:13:05;7.60;99.90
23120;DHT22;11729;50.836;4.330;2023-11-22T01:15:30;7.50;99.90
23120;DHT22;11729;50.836;4.330;2023-11-22T01:17:56;7.50;99.90
23120;DHT22;11729;50.836;4.330;2023-11-22T01:20:23;7.40;99.90
23120;DHT22;11729;50.836;4.330;2023-11-22T01:22:49;7.40;99.90
23120;DHT22;11729;50.836;4.330;2023-11-22T01:25:14;7.50;99.90
23120;DHT22;11729;50.836;4.330;2023-11-22T01:27:40;7.50;99.90
23120;DHT22;11729;50.836;4.330;2023-11-22T01:30:06;7.40;99.90
23120;DHT22;11729;50.836;4.330;2023-11-22T01:32:35;7.40;99.90
23120;DHT22;11729;50.836;4.330;2023-11-22T01:35:01;7.40;99.90
23120;DHT22;11729;50.836;4.330;2023-11-22T01:37:26;7.50;99.90
23120;DHT22;11729;50.836;4.330;2023-11-22T01:39:53;7.50;99.90
23120;DHT22;11729;50.836;4.330;2023-11-22T01:42:20;7.50;99.90
23120;DHT22;11729;50.836;4.330;2023-11-22T01:44:46;7.60;99.90
23120;DHT22;11729;50.836;4.330;2023-11-22T01:47:13;7.50;99.90
23120;DHT22;11729;50.836;4.330;2023-11-22T01:49:40;7.60;99.90
23120;DHT22;11729;50.836;4.330;2023-11-22T01:52:06;7.70;99.90
23120;DHT22;11729;50.836;4.330;2023-11-22T01:54:32;7.60;99.90
23120;DHT22;11729;50.836;4.330;2023-11-22T01:56:59;7.80;99.90
23120;DHT22;11729;50.836;4.330;2023-11-22T01:59:29;7.90;99.90
23120;DHT22;11729;50.836;4.330;2023-11-22T02:01:56;7.70;99.90
23120;DHT22;11729;50.836;4.330;2023-11-22T02:04:22;7.70;99.90
23120;DHT22;11729;50.836;4.330;2023-11-22T02:06:47;7.50;99.90
23120;DHT22;11729;50.836;4.330;2023-11-22T02:09:13;7.40;99.90
23120;DHT22;11729;50.836;4.330;2023-11-22T02:11:41;7.40;99.90
23120;DHT22;11729;50.836;4.330;2023-11-22T02:14:08;7.50;99.90
23120;DHT22;11729;50.836;4.330;2023-11-22T02:16:35;7.60;99.90
23120;DHT22;11729;50.836;4.330;2023-11-22T02:19:01;7.70;99.90
23120;DHT22;11729;50.836;4.330;2023-11-22T02:21:27;7.70;99.90
23120;DHT22;11729;50.836;4.330;2023-11-22T02:23:52;7.70;99.90
23120;DHT22;11729;50.836;4.330;2023-11-22T02:26:18;7.60;99.90
23120;DHT22;11729;50.836;4.330;2023-11-22T02:28:44;7.30;99.90
23120;DHT22;11729;50.836;4.330;2023-11-22T02:31:09;7.10;99.90
23120;DHT22;11729;50.836;4.330;2023-11-22T02:33:35;7.30;99.90
23120;DHT22;11729;50.836;4.330;2023-11-22T02:36:01;7.20;99.90
23120;DHT22;11729;50.836;4.330;2023-11-22T02:38:28;7.20;99.90
23120;DHT22;11729;50.836;4.330;2023-11-22T02:40:54;7.20;99.90
23120;DHT22;11729;50.836;4.330;2023-11-22T02:43:20;7.10;99.90
23120;DHT22;11729;50.836;4.330;2023-11-22T02:45:46;7.10;99.90
23120;DHT22;11729;50.836;4.330;2023-11-22T02:48:13;7.20;99.90
23120;DHT22;11729;50.836;4.330;2023-11-22T02:50:39;7.30;99.90
23120;DHT22;11729;50.836;4.330;2023-11-22T02:53:05;7.00;99.90
23120;DHT22;11729;50.836;4.330;2023-11-22T02:55:30;7.10;99.90
23120;DHT22;11729;50.836;4.330;2023-11-22T02:57:56;7.10;99.90
23120;DHT22;11729;50.836;4.330;2023-11-22T03:00:22;7.00;99.90
23120;DHT22;11729;50.836;4.330;2023-11-22T03:02:48;7.10;99.90
23120;DHT22;11729;50.836;4.330;2023-11-22T03:05:22;7.00;99.90
23120;DHT22;11729;50.836;4.330;2023-11-22T03:07:47;6.90;99.90
23120;DHT22;11729;50.836;4.330;2023-11-22T03:10:13;6.90;99.90
23120;DHT22;11729;50.836;4.330;2023-11-22T03:12:39;7.00;99.90
23120;DHT22;11729;50.836;4.330;2023-11-22T03:15:05;7.00;99.90
23120;DHT22;11729;50.836;4.330;2023-11-22T03:17:31;7.00;99.90
23120;DHT22;11729;50.836;4.330;2023-11-22T03:19:58;7.10;99.90
23120;DHT22;11729;50.836;4.330;2023-11-22T03:22:24;7.30;99.90
23120;DHT22;11729;50.836;4.330;2023-11-22T03:24:50;7.30;99.90
23120;DHT22;11729;50.836;4.330;2023-11-22T03:27:16;7.30;99.90
23120;DHT22;11729;50.836;4.330;2023-11-22T03:29:42;7.10;99.90
23120;DHT22;11729;50.836;4.330;2023-11-22T03:32:08;7.10;99.90
23120;DHT22;11729;50.836;4.330;2023-11-22T03:34:33;7.10;99.90
23120;DHT22;11729;50.836;4.330;2023-11-22T03:36:59;7.00;99.90
23120;DHT22;11729;50.836;4.330;2023-11-22T03:39:24;7.00;99.90
23120;DHT22;11729;50.836;4.330;2023-11-22T03:41:50;7.10;99.90
23120;DHT22;11729;50.836;4.330;2023-11-22T03:44:16;7.20;99.90
23120;DHT22;11729;50.836;4.330;2023-11-22T03:46:43;7.20;99.90
23120;DHT22;11729;50.836;4.330;2023-11-22T03:49:09;7.20;99.90
23120;DHT22;11729;50.836;4.330;2023-11-22T03:51:35;7.00;99.90
23120;DHT22;11729;50.836;4.330;2023-11-22T03:54:02;7.00;99.90
23120;DHT22;11729;50.836;4.330;2023-11-22T03:56:28;7.00;99.90
23120;DHT22;11729;50.836;4.330;2023-11-22T03:58:54;7.00;99.90
23120;DHT22;11729;50.836;4.330;2023-11-22T04:01:20;6.70;99.90
23120;DHT22;11729;50.836;4.330;2023-11-22T04:03:46;6.90;99.90
23120;DHT22;11729;50.836;4.330;2023-11-22T04:06:14;7.00;99.90
23120;DHT22;11729;50.836;4.330;2023-11-22T04:08:41;6.90;99.90
23120;DHT22;11729;50.836;4.330;2023-11-22T04:11:09;6.90;99.90
23120;DHT22;11729;50.836;4.330;2023-11-22T04:13:35;6.90;99.90
23120;DHT22;11729;50.836;4.330;2023-11-22T04:16:03;7.00;99.90
23120;DHT22;11729;50.836;4.330;2023-11-22T04:18:29;7.20;99.90
23120;DHT22;11729;50.836;4.330;2023-11-22T04:20:55;6.90;99.90
23120;DHT22;11729;50.836;4.330;2023-11-22T04:23:23;7.00;99.90
23120;DHT22;11729;50.836;4.330;2023-11-22T04:25:49;7.00;99.90
23120;DHT22;11729;50.836;4.330;2023-11-22T04:28:15;7.00;99.90
23120;DHT22;11729;50.836;4.330;2023-11-22T04:30:41;7.10;99.90
23120;DHT22;11729;50.836;4.330;2023-11-22T04:33:07;7.10;99.90
23120;DHT22;11729;50.836;4.330;2023-11-22T04:35:32;7.00;99.90
23120;DHT22;11729;50.836;4.330;2023-11-22T04:38:02;6.90;99.90
23120;DHT22;11729;50.836;4.330;2023-11-22T04:40:29;7.00;99.90
23120;DHT22;11729;50.836;4.330;2023-11-22T04:42:55;7.20;99.90
23120;DHT22;11729;50.836;4.330;2023-11-22T04:45:20;7.20;99.90
23120;DHT22;11729;50.836;4.330;2023-11-22T04:47:46;7.40;99.90
23120;DHT22;11729;50.836;4.330;2023-11-22T04:50:11;7.50;99.90
23120;DHT22;11729;50.836;4.330;2023-11-22T04:52:37;7.40;99.90
23120;DHT22;11729;50.836;4.330;2023-11-22T04:55:03;7.30;99.90
23120;DHT22;11729;50.836;4.330;2023-11-22T04:57:30;7.30;99.90
23120;DHT22;11729;50.836;4.330;2023-11-22T04:59:55;7.20;99.90
23120;DHT22;11729;50.836;4.330;2023-11-22T05:02:21;7.30;99.90
23120;DHT22;11729;50.836;4.330;2023-11-22T05:04:47;7.30;99.90
23120;DHT22;11729;50.836;4.330;2023-11-22T05:07:14;7.30;99.90
23120;DHT22;11729;50.836;4.330;2023-11-22T05:09:41;7.40;99.90
23120;DHT22;11729;50.836;4.330;2023-11-22T05:12:06;7.40;99.90
23120;DHT22;11729;50.836;4.330;2023-11-22T05:14:32;7.20;99.90
23120;DHT22;11729;50.836;4.330;2023-11-22T05:16:58;7.40;99.90
23120;DHT22;11729;50.836;4.330;2023-11-22T05:19:24;7.20;99.90
23120;DHT22;11729;50.836;4.330;2023-11-22T05:21:49;7.00;99.90
23120;DHT22;11729;50.836;4.330;2023-11-22T05:24:15;7.20;99.90
23120;DHT22;11729;50.836;4.330;2023-11-22T05:26:41;7.10;99.90
23120;DHT22;11729;50.836;4.330;2023-11-22T05:29:08;6.90;99.90
23120;DHT22;11729;50.836;4.330;2023-11-22T05:31:33;6.90;99.90
23120;DHT22;11729;50.836;4.330;2023-11-22T05:33:59;6.90;99.90
23120;DHT22;11729;50.836;4.330;2023-11-22T05:36:24;7.00;99.90
23120;DHT22;11729;50.836;4.330;2023-11-22T05:38:50;7.00;99.90
23120;DHT22;11729;50.836;4.330;2023-11-22T05:41:16;6.90;99.90
23120;DHT22;11729;50.836;4.330;2023-11-22T05:43:41;6.90;99.90
23120;DHT22;11729;50.836;4.330;2023-11-22T05:46:08;6.80;99.90
23120;DHT22;11729;50.836;4.330;2023-11-22T05:48:34;6.80;99.90
23120;DHT22;11729;50.836;4.330;2023-11-22T05:50:59;6.90;99.90
23120;DHT22;11729;50.836;4.330;2023-11-22T05:53:25;6.90;99.90
23120;DHT22;11729;50.836;4.330;2023-11-22T05:55:51;7.00;99.90
23120;DHT22;11729;50.836;4.330;2023-11-22T05:58:18;7.00;99.90
23120;DHT22;11729;50.836;4.330;2023-11-22T06:00:47;7.10;99.90
23120;DHT22;11729;50.836;4.330;2023-11-22T06:03:13;7.00;99.90
23120;DHT22;11729;50.836;4.330;2023-11-22T06:05:43;7.10;99.90
23120;DHT22;11729;50.836;4.330;2023-11-22T06:08:08;7.10;99.90
23120;DHT22;11729;50.836;4.330;2023-11-22T06:10:37;7.10;99.90
23120;DHT22;11729;50.836;4.330;2023-11-22T06:13:06;7.20;99.90
23120;DHT22;11729;50.836;4.330;2023-11-22T06:15:32;7.30;99.90
23120;DHT22;11729;50.836;4.330;2023-11-22T06:17:58;7.40;99.90
23120;DHT22;11729;50.836;4.330;2023-11-22T06:20:23;7.30;99.90
23120;DHT22;11729;50.836;4.330;2023-11-22T06:22:51;7.50;99.90
23120;DHT22;11729;50.836;4.330;2023-11-22T06:25:17;7.40;99.90
23120;DHT22;11729;50.836;4.330;2023-11-22T06:27:42;7.30;99.90
23120;DHT22;11729;50.836;4.330;2023-11-22T06:30:08;7.10;99.90
23120;DHT22;11729;50.836;4.330;2023-11-22T06:32:37;7.10;99.90
23120;DHT22;11729;50.836;4.330;2023-11-22T06:35:03;7.00;99.90
23120;DHT22;11729;50.836;4.330;2023-11-22T06:37:28;7.10;99.90
23120;DHT22;11729;50.836;4.330;2023-11-22T06:39:54;7.20;99.90
23120;DHT22;11729;50.836;4.330;2023-11-22T06:42:19;7.40;99.90
23120;DHT22;11729;50.836;4.330;2023-11-22T06:44:45;7.50;99.90
23120;DHT22;11729;50.836;4.330;2023-11-22T06:47:14;7.50;99.90
23120;DHT22;11729;50.836;4.330;2023-11-22T06:49:39;7.50;99.90
23120;DHT22;11729;50.836;4.330;2023-11-22T06:52:05;7.40;99.90
23120;DHT22;11729;50.836;4.330;2023-11-22T06:54:31;7.60;99.90
23120;DHT22;11729;50.836;4.330;2023-11-22T06:56:57;7.60;99.90
23120;DHT22;11729;50.836;4.330;2023-11-22T06:59:22;7.70;99.90
23120;DHT22;11729;50.836;4.330;2023-11-22T07:01:48;7.60;99.90
23120;DHT22;11729;50.836;4.330;2023-11-22T07:04:14;7.40;99.90
23120;DHT22;11729;50.836;4.330;2023-11-22T07:06:39;7.30;99.90
23120;DHT22;11729;50.836;4.330;2023-11-22T07:09:06;7.50;99.90
23120;DHT22;11729;50.836;4.330;2023-11-22T07:11:35;7.50;99.90
23120;DHT22;11729;50.836;4.330;2023-11-22T07:14:03;7.40;99.90
23120;DHT22;11729;50.836;4.330;2023-11-22T07:16:29;7.40;99.90
23120;DHT22;11729;50.836;4.330;2023-11-22T07:18:56;7.30;99.90
23120;DHT22;11729;50.836;4.330;2023-11-22T07:21:22;7.20;99.90
23120;DHT22;11729;50.836;4.330;2023-11-22T07:23:48;7.40;99.90
23120;DHT22;11729;50.836;4.330;2023-11-22T07:26:14;7.50;99.90
23120;DHT22;11729;50.836;4.330;2023-11-22T07:28:40;7.60;99.90
23120;DHT22;11729;50.836;4.330;2023-11-22T07:31:09;7.60;99.90
23120;DHT22;11729;50.836;4.330;2023-11-22T07:33:35;7.60;99.90
23120;DHT22;11729;50.836;4.330;2023-11-22T07:36:00;7.80;99.90
23120;DHT22;11729;50.836;4.330;2023-11-22T07:38:28;7.90;99.90
23120;DHT22;11729;50.836;4.330;2023-11-22T07:40:54;7.80;99.90
23120;DHT22;11729;50.836;4.330;2023-11-22T07:43:22;7.80;99.90
23120;DHT22;11729;50.836;4.330;2023-11-22T07:45:48;7.90;99.90
23120;DHT22;11729;50.836;4.330;2023-11-22T07:48:16;7.80;99.90
23120;DHT22;11729;50.836;4.330;2023-11-22T07:50:43;8.00;99.90
23120;DHT22;11729;50.836;4.330;2023-11-22T07:53:14;8.00;99.90
23120;DHT22;11729;50.836;4.330;2023-11-22T07:55:40;8.00;99.90
23120;DHT22;11729;50.836;4.330;2023-11-22T07:58:07;8.10;99.90
23120;DHT22;11729;50.836;4.330;2023-11-22T08:00:33;8.10;99.90
23120;DHT22;11729;50.836;4.330;2023-11-22T08:03:01;8.00;99.90
23120;DHT22;11729;50.836;4.330;2023-11-22T08:05:31;8.00;99.90
23120;DHT22;11729;50.836;4.330;2023-11-22T08:08:03;8.10;99.90
23120;DHT22;11729;50.836;4.330;2023-11-22T08:10:32;8.30;99.90
23120;DHT22;11729;50.836;4.330;2023-11-22T08:12:57;8.40;99.90
23120;DHT22;11729;50.836;4.330;2023-11-22T08:15:23;8.60;99.90
23120;DHT22;11729;50.836;4.330;2023-11-22T08:17:49;8.60;99.90
23120;DHT22;11729;50.836;4.330;2023-11-22T08:20:15;8.50;99.90
23120;DHT22;11729;50.836;4.330;2023-11-22T08:22:44;8.60;99.90
23120;DHT22;11729;50.836;4.330;2023-11-22T08:25:11;8.50;99.90
23120;DHT22;11729;50.836;4.330;2023-11-22T08:27:40;8.50;99.90
23120;DHT22;11729;50.836;4.330;2023-11-22T08:30:07;8.60;99.90
23120;DHT22;11729;50.836;4.330;2023-11-22T08:32:45;8.70;99.90
23120;DHT22;11729;50.836;4.330;2023-11-22T08:35:19;8.80;99.90
23120;DHT22;11729;50.836;4.330;2023-11-22T08:37:46;8.70;99.90
23120;DHT22;11729;50.836;4.330;2023-11-22T08:40:12;8.80;99.90
23120;DHT22;11729;50.836;4.330;2023-11-22T08:42:39;8.80;99.90
23120;DHT22;11729;50.836;4.330;2023-11-22T08:45:07;8.80;99.90
23120;DHT22;11729;50.836;4.330;2023-11-22T08:47:34;8.90;99.90
23120;DHT22;11729;50.836;4.330;2023-11-22T08:50:00;9.00;99.90
23120;DHT22;11729;50.836;4.330;2023-11-22T08:52:49;9.10;99.90
23120;DHT22;11729;50.836;4.330;2023-11-22T08:55:21;9.00;99.90
23120;DHT22;11729;50.836;4.330;2023-11-22T08:57:51;9.00;99.90
23120;DHT22;11729;50.836;4.330;2023-11-22T09:00:17;9.00;99.90
23120;DHT22;11729;50.836;4.330;2023-11-22T09:02:51;9.10;99.90
23120;DHT22;11729;50.836;4.330;2023-11-22T09:05:16;9.20;99.90
23120;DHT22;11729;50.836;4.330;2023-11-22T09:07:44;9.20;99.90
23120;DHT22;11729;50.836;4.330;2023-11-22T09:10:10;9.30;99.90
23120;DHT22;11729;50.836;4.330;2023-11-22T09:12:38;9.10;99.90
23120;DHT22;11729;50.836;4.330;2023-11-22T09:15:11;9.00;99.90
23120;DHT22;11729;50.836;4.330;2023-11-22T09:17:37;8.80;99.90
23120;DHT22;11729;50.836;4.330;2023-11-22T09:20:18;8.90;99.90
23120;DHT22;11729;50.836;4.330;2023-11-22T09:22:51;9.20;99.90
23120;DHT22;11729;50.836;4.330;2023-11-22T09:25:18;9.30;99.90
23120;DHT22;11729;50.836;4.330;2023-11-22T09:27:50;9.40;99.90
23120;DHT22;11729;50.836;4.330;2023-11-22T09:30:29;9.10;99.90
23120;DHT22;11729;50.836;4.330;2023-11-22T09:33:18;9.30;99.90
23120;DHT22;11729;50.836;4.330;2023-11-22T09:35:45;9.40;99.90
23120;DHT22;11729;50.836;4.330;2023-11-22T09:38:12;9.40;99.90
23120;DHT22;11729;50.836;4.330;2023-11-22T09:43:06;9.20;99.90
23120;DHT22;11729;50.836;4.330;2023-11-22T09:45:31;9.40;99.90
23120;DHT22;11729;50.836;4.330;2023-11-22T09:47:57;9.50;99.90
23120;DHT22;11729;50.836;4.330;2023-11-22T09:53:22;9.60;99.90
23120;DHT22;11729;50.836;4.330;2023-11-22T09:55:48;9.80;99.90
23120;DHT22;11729;50.836;4.330;2023-11-22T09:58:16;9.90;99.90
23120;DHT22;11729;50.836;4.330;2023-11-22T10:00:43;9.90;99.90
23120;DHT22;11729;50.836;4.330;2023-11-22T10:03:10;9.90;99.90
23120;DHT22;11729;50.836;4.330;2023-11-22T10:05:39;9.60;99.90
23120;DHT22;11729;50.836;4.330;2023-11-22T10:08:06;9.50;99.90
23120;DHT22;11729;50.836;4.330;2023-11-22T10:10:36;9.20;99.90
23120;DHT22;11729;50.836;4.330;2023-11-22T10:13:01;9.20;99.90
23120;DHT22;11729;50.836;4.330;2023-11-22T10:15:29;9.50;99.90
23120;DHT22;11729;50.836;4.330;2023-11-22T10:17:59;9.50;99.90
23120;DHT22;11729;50.836;4.330;2023-11-22T10:20:46;9.60;99.90
23120;DHT22;11729;50.836;4.330;2023-11-22T10:23:14;9.80;99.90
23120;DHT22;11729;50.836;4.330;2023-11-22T10:25:48;9.90;99.90
23120;DHT22;11729;50.836;4.330;2023-11-22T10:28:18;9.80;99.90
23120;DHT22;11729;50.836;4.330;2023-11-22T10:30:46;10.00;99.90
23120;DHT22;11729;50.836;4.330;2023-11-22T10:33:11;10.20;99.90
23120;DHT22;11729;50.836;4.330;2023-11-22T10:35:44;10.10;99.90
23120;DHT22;11729;50.836;4.330;2023-11-22T10:38:13;10.00;99.90
23120;DHT22;11729;50.836;4.330;2023-11-22T10:40:38;10.00;99.90
23120;DHT22;11729;50.836;4.330;2023-11-22T10:43:06;9.90;99.90
23120;DHT22;11729;50.836;4.330;2023-11-22T10:45:33;9.70;99.90
23120;DHT22;11729;50.836;4.330;2023-11-22T10:48:00;9.20;99.90
23120;DHT22;11729;50.836;4.330;2023-11-22T10:50:26;9.30;99.90
23120;DHT22;11729;50.836;4.330;2023-11-22T10:52:58;9.20;99.90
23120;DHT22;11729;50.836;4.330;2023-11-22T10:55:27;9.30;99.90
23120;DHT22;11729;50.836;4.330;2023-11-22T10:57:56;9.50;99.90
23120;DHT22;11729;50.836;4.330;2023-11-22T11:00:25;9.60;99.90
23120;DHT22;11729;50.836;4.330;2023-11-22T11:03:03;9.70;99.90
23120;DHT22;11729;50.836;4.330;2023-11-22T11:05:33;9.90;99.90
23120;DHT22;11729;50.836;4.330;2023-11-22T11:08:08;9.90;99.90
23120;DHT22;11729;50.836;4.330;2023-11-22T11:10:41;10.00;99.90
23120;DHT22;11729;50.836;4.330;2023-11-22T11:13:08;9.90;99.90
23120;DHT22;11729;50.836;4.330;2023-11-22T11:15:39;9.90;99.90
23120;DHT22;11729;50.836;4.330;2023-11-22T11:18:06;10.10;99.90
23120;DHT22;11729;50.836;4.330;2023-11-22T11:20:44;10.20;99.90
23120;DHT22;11729;50.836;4.330;2023-11-22T11:23:14;10.00;99.90
23120;DHT22;11729;50.836;4.330;2023-11-22T11:25:41;10.20;99.90
23120;DHT22;11729;50.836;4.330;2023-11-22T11:28:10;10.50;99.90
23120;DHT22;11729;50.836;4.330;2023-11-22T11:30:49;10.80;99.90
23120;DHT22;11729;50.836;4.330;2023-11-22T11:33:26;11.10;99.90
23120;DHT22;11729;50.836;4.330;2023-11-22T11:35:52;10.40;99.90
23120;DHT22;11729;50.836;4.330;2023-11-22T11:38:21;10.20;99.90
23120;DHT22;11729;50.836;4.330;2023-11-22T11:40:51;10.10;99.90
23120;DHT22;11729;50.836;4.330;2023-11-22T11:43:45;10.30;99.90
23120;DHT22;11729;50.836;4.330;2023-11-22T11:46:12;10.50;99.90
23120;DHT22;11729;50.836;4.330;2023-11-22T11:48:38;10.50;99.90
23120;DHT22;11729;50.836;4.330;2023-11-22T11:51:07;10.50;99.90
23120;DHT22;11729;50.836;4.330;2023-11-22T11:53:32;10.60;99.90
23120;DHT22;11729;50.836;4.330;2023-11-22T11:55:58;10.90;99.90
23120;DHT22;11729;50.836;4.330;2023-11-22T11:58:24;11.00;99.90
23120;DHT22;11729;50.836;4.330;2023-11-22T12:00:54;10.50;99.90
23120;DHT22;11729;50.836;4.330;2023-11-22T12:03:20;10.50;99.90
23120;DHT22;11729;50.836;4.330;2023-11-22T12:05:47;10.50;99.90
23120;DHT22;11729;50.836;4.330;2023-11-22T12:08:14;10.60;99.90
23120;DHT22;11729;50.836;4.330;2023-11-22T12:10:44;10.70;99.90
23120;DHT22;11729;50.836;4.330;2023-11-22T12:13:22;10.60;99.90
23120;DHT22;11729;50.836;4.330;2023-11-22T12:15:47;11.00;99.90
23120;DHT22;11729;50.836;4.330;2023-11-22T12:18:13;11.10;99.90
23120;DHT22;11729;50.836;4.330;2023-11-22T12:20:39;11.20;99.90
23120;DHT22;11729;50.836;4.330;2023-11-22T12:23:06;11.20;99.90
23120;DHT22;11729;50.836;4.330;2023-11-22T12:25:32;11.20;99.90
23120;DHT22;11729;50.836;4.330;2023-11-22T12:27:58;11.00;99.90
23120;DHT22;11729;50.836;4.330;2023-11-22T12:30:32;11.00;99.90
23120;DHT22;11729;50.836;4.330;2023-11-22T12:33:09;10.50;99.90
23120;DHT22;11729;50.836;4.330;2023-11-22T12:35:35;10.60;99.90
23120;DHT22;11729;50.836;4.330;2023-11-22T12:38:01;10.70;99.90
23120;DHT22;11729;50.836;4.330;2023-11-22T12:40:30;10.50;99.90
23120;DHT22;11729;50.836;4.330;2023-11-22T12:42:57;10.60;99.90
23120;DHT22;11729;50.836;4.330;2023-11-22T12:45:24;10.80;99.90
23120;DHT22;11729;50.836;4.330;2023-11-22T12:47:53;10.60;99.90
23120;DHT22;11729;50.836;4.330;2023-11-22T12:50:35;10.30;99.90
23120;DHT22;11729;50.836;4.330;2023-11-22T12:53:16;10.10;99.90
23120;DHT22;11729;50.836;4.330;2023-11-22T12:55:46;10.10;99.90
23120;DHT22;11729;50.836;4.330;2023-11-22T12:58:14;10.50;99.90
23120;DHT22;11729;50.836;4.330;2023-11-22T13:00:40;10.90;99.90
23120;DHT22;11729;50.836;4.330;2023-11-22T13:03:09;11.50;99.90
23120;DHT22;11729;50.836;4.330;2023-11-22T13:05:42;11.60;99.90
23120;DHT22;11729;50.836;4.330;2023-11-22T13:08:10;11.60;99.90
23120;DHT22;11729;50.836;4.330;2023-11-22T13:10:43;11.70;99.90
23120;DHT22;11729;50.836;4.330;2023-11-22T13:13:08;11.50;99.90
23120;DHT22;11729;50.836;4.330;2023-11-22T13:15:35;11.30;99.90
23120;DHT22;11729;50.836;4.330;2023-11-22T13:18:01;11.40;99.90
23120;DHT22;11729;50.836;4.330;2023-11-22T13:20:27;11.40;99.90
23120;DHT22;11729;50.836;4.330;2023-11-22T13:22:54;11.50;99.90
23120;DHT22;11729;50.836;4.330;2023-11-22T13:25:23;11.90;99.90
23120;DHT22;11729;50.836;4.330;2023-11-22T13:27:49;12.70;99.90
23120;DHT22;11729;50.836;4.330;2023-11-22T13:30:16;13.20;99.90
23120;DHT22;11729;50.836;4.330;2023-11-22T13:32:54;13.50;99.90
23120;DHT22;11729;50.836;4.330;2023-11-22T13:35:27;13.80;99.90
23120;DHT22;11729;50.836;4.330;2023-11-22T13:38:00;13.30;99.90
23120;DHT22;11729;50.836;4.330;2023-11-22T13:40:28;13.10;99.90
23120;DHT22;11729;50.836;4.330;2023-11-22T13:42:57;12.60;99.90
23120;DHT22;11729;50.836;4.330;2023-11-22T13:45:24;12.10;99.90
23120;DHT22;11729;50.836;4.330;2023-11-22T13:47:53;12.00;99.90
23120;DHT22;11729;50.836;4.330;2023-11-22T13:50:23;12.20;99.90
23120;DHT22;11729;50.836;4.330;2023-11-22T13:52:53;12.30;99.90
23120;DHT22;11729;50.836;4.330;2023-11-22T13:55:19;12.40;99.90
23120;DHT22;11729;50.836;4.330;2023-11-22T13:57:52;11.80;99.90
23120;DHT22;11729;50.836;4.330;2023-11-22T14:00:20;11.50;99.90
23120;DHT22;11729;50.836;4.330;2023-11-22T14:02:52;11.20;99.90
23120;DHT22;11729;50.836;4.330;2023-11-22T14:05:18;10.60;99.90
23120;DHT22;11729;50.836;4.330;2023-11-22T14:07:44;10.60;99.90
23120;DHT22;11729;50.836;4.330;2023-11-22T14:10:11;10.50;99.90
23120;DHT22;11729;50.836;4.330;2023-11-22T14:12:37;10.40;99.90
23120;DHT22;11729;50.836;4.330;2023-11-22T14:15:04;10.00;99.90
23120;DHT22;11729;50.836;4.330;2023-11-22T14:17:30;10.00;99.90
23120;DHT22;11729;50.836;4.330;2023-11-22T14:19:56;10.00;99.90
23120;DHT22;11729;50.836;4.330;2023-11-22T14:22:22;10.00;99.90
23120;DHT22;11729;50.836;4.330;2023-11-22T14:24:49;10.10;99.90
23120;DHT22;11729;50.836;4.330;2023-11-22T14:27:16;10.30;99.90
23120;DHT22;11729;50.836;4.330;2023-11-22T14:29:43;10.30;99.90
23120;DHT22;11729;50.836;4.330;2023-11-22T14:32:09;10.00;99.90
23120;DHT22;11729;50.836;4.330;2023-11-22T14:34:35;10.00;99.90
23120;DHT22;11729;50.836;4.330;2023-11-22T14:37:01;10.00;99.90
23120;DHT22;11729;50.836;4.330;2023-11-22T14:39:26;10.10;99.90
23120;DHT22;11729;50.836;4.330;2023-11-22T14:41:54;9.90;99.90
23120;DHT22;11729;50.836;4.330;2023-11-22T14:44:21;9.90;99.90
23120;DHT22;11729;50.836;4.330;2023-11-22T14:46:46;9.80;99.90
23120;DHT22;11729;50.836;4.330;2023-11-22T14:49:13;9.80;99.90
23120;DHT22;11729;50.836;4.330;2023-11-22T14:51:40;9.80;99.90
23120;DHT22;11729;50.836;4.330;2023-11-22T14:54:05;9.70;99.90
23120;DHT22;11729;50.836;4.330;2023-11-22T14:56:32;9.70;99.90
23120;DHT22;11729;50.836;4.330;2023-11-22T14:58:58;9.70;99.90
23120;DHT22;11729;50.836;4.330;2023-11-22T15:01:25;9.70;99.90
23120;DHT22;11729;50.836;4.330;2023-11-22T15:03:52;9.50;99.90
23120;DHT22;11729;50.836;4.330;2023-11-22T15:06:20;9.50;99.90
23120;DHT22;11729;50.836;4.330;2023-11-22T15:08:47;9.40;99.90
23120;DHT22;11729;50.836;4.330;2023-11-22T15:11:13;9.50;99.90
23120;DHT22;11729;50.836;4.330;2023-11-22T15:13:41;9.60;99.90
23120;DHT22;11729;50.836;4.330;2023-11-22T15:16:07;9.50;99.90
23120;DHT22;11729;50.836;4.330;2023-11-22T15:18:32;9.50;99.90
23120;DHT22;11729;50.836;4.330;2023-11-22T15:20:58;9.30;99.90
23120;DHT22;11729;50.836;4.330;2023-11-22T15:23:23;9.20;99.90
23120;DHT22;11729;50.836;4.330;2023-11-22T15:25:49;9.20;99.90
23120;DHT22;11729;50.836;4.330;2023-11-22T15:28:15;9.20;99.90
23120;DHT22;11729;50.836;4.330;2023-11-22T15:30:53;9.20;99.90
23120;DHT22;11729;50.836;4.330;2023-11-22T15:33:23;9.40;99.90
23120;DHT22;11729;50.836;4.330;2023-11-22T15:35:49;9.40;99.90
23120;DHT22;11729;50.836;4.330;2023-11-22T15:38:15;9.30;99.90
23120;DHT22;11729;50.836;4.330;2023-11-22T15:40:40;9.20;99.90
23120;DHT22;11729;50.836;4.330;2023-11-22T15:43:06;9.30;99.90
23120;DHT22;11729;50.836;4.330;2023-11-22T15:45:33;9.30;99.90
23120;DHT22;11729;50.836;4.330;2023-11-22T15:47:59;9.30;99.90